This is the latest recevied weather packets stored in our database for station/object N6RDS-8. If no packets are shown the sender has not sent any weather packets the latest 1 day(s).
| Time | Temp. | Humidity | Pressure | Rain* | Wind** | Luminosity | Snow |
|---|---|---|---|---|---|---|---|
| 1778103709 | 23.89° C | 22% | 1018.2 hPa | 0 mm | - | 640 W/m² | - |
| 1778102496 | 25° C | 21% | 1018.4 hPa | 0 mm | - | 680 W/m² | - |
| 1778102192 | 25° C | 22% | 1018.7 hPa | 0 mm | - | 688 W/m² | - |
| 1778101889 | 23.89° C | 23% | 1018.6 hPa | 0 mm | - | 696 W/m² | - |
| 1778100674 | 23.33° C | 21% | 1019 hPa | 0 mm | - | 725 W/m² | - |
| 1778099768 | 23.33° C | 20% | 1018.9 hPa | 0 mm | - | 744 W/m² | - |
| 1778097645 | 22.78° C | 23% | 1019.1 hPa | 0 mm | - | 771 W/m² | - |
| 1778097038 | 23.33° C | 21% | 1019.4 hPa | 0 mm | - | 777 W/m² | - |
| 1778094916 | 22.22° C | 24% | 1019.6 hPa | 0 mm | - | 777 W/m² | - |
| 1778094612 | 22.78° C | 22% | 1019.7 hPa | 0 mm | - | 775 W/m² | - |
| 1778093097 | 22.78° C | 25% | 1019.9 hPa | 0 mm | - | 763 W/m² | - |
| 1778092794 | 22.78° C | 25% | 1019.8 hPa | 0 mm | - | 759 W/m² | - |
| 1778091879 | 20.56° C | 26% | 1020 hPa | 0 mm | - | 745 W/m² | - |
| 1778090666 | 21.11° C | 26% | 1020.3 hPa | 0 mm | - | 721 W/m² | - |
| 1778090363 | 21.11° C | 27% | 1020.4 hPa | 0 mm | - | 713 W/m² | - |
| 1778090060 | 20.56° C | 29% | 1020.3 hPa | 0 mm | - | 707 W/m² | - |
| 1778088848 | 20° C | 29% | 1020.3 hPa | 0 mm | - | 671 W/m² | - |
| 1778088545 | 21.11° C | 31% | 1020.4 hPa | 0 mm | - | 665 W/m² | - |
| 1778087939 | 20.56° C | 33% | 1020.1 hPa | 0 mm | - | 646 W/m² | - |
| 1778085506 | 18.33° C | 41% | 1020.1 hPa | 0 mm | - | 554 W/m² | - |
| 1778084297 | 17.78° C | 44% | 1020.3 hPa | 0 mm | - | 501 W/m² | - |
| 1778083994 | 17.78° C | 44% | 1019.9 hPa | 0 mm | - | 487 W/m² | - |
| 1778083388 | 17.22° C | 45% | 1020.3 hPa | 0 mm | - | 458 W/m² | - |
| 1778083087 | 16.67° C | 46% | 1020 hPa | 0 mm | - | 445 W/m² | - |
| 1778082783 | 16.67° C | 48% | 1020.1 hPa | 0 mm | - | 427 W/m² | - |
* Rain latest hour (hover to see other rain measurements)
** Current wind speed in m/s (hover to see current wind gust speed)